Quillayute, Washington
Current Conditions -  °F | °C
As of 9:53 PM on Wednesday 22 Oct 2014 (Local Time) from KUIL Reporting Station
Haze Haze  
Wind Chill: 50°   Ceiling: 6000
Heat Index: 50°   Visibility: 6mi
Dew Point: 50°   Wind: 0mph
Humidity: 100%   Direction: NA
Pressure: 29.58"   Gusts: NA
Location:  47.95°N, 124.55°W
Report Text: KUIL 230453Z AUTO 00000KT 6SM BR SCT013 OVC060 10/10 A2958 RMK AO2 RAE24 SLP018 P0000 T01000100
Loading
Personal Weather Stations






























Interactive Weather Map
Tropical Storm Tracking
New forecast layout! Learn more

10-Day Weather Forecast

Advertisements
Track Severe Weather on mobile